createdAt,value
2022-12-29T00:02:05.619Z,84.76
2022-12-29T00:05:05.669Z,84.58
2022-12-29T00:07:46.785Z,84.78
2022-12-29T00:10:25.520Z,84.15
2022-12-29T00:13:26.083Z,84.04
2022-12-29T00:16:31.408Z,83.76
2022-12-29T00:19:39.304Z,83.44
2022-12-29T00:22:39.704Z,83.37
2022-12-29T00:25:32.974Z,82.35
2022-12-29T00:28:23.098Z,82.33
2022-12-29T00:31:11.300Z,82.26
2022-12-29T00:34:03.443Z,82.18
2022-12-29T00:36:50.912Z,82.06
2022-12-29T00:39:56.193Z,81.91
2022-12-29T00:42:57.826Z,81.26
2022-12-29T00:45:38.097Z,81.33
2022-12-29T00:48:11.853Z,81.09
2022-12-29T00:53:55.015Z,80.75
2022-12-29T00:56:29.219Z,80.56
2022-12-29T00:59:07.127Z,80.89
2022-12-29T01:01:46.635Z,80.80
2022-12-29T01:04:33.837Z,80.43
2022-12-29T01:07:18.715Z,80.23
2022-12-29T01:10:19.733Z,80.17
2022-12-29T01:12:51.258Z,79.80
2022-12-29T01:15:31.753Z,79.38
2022-12-29T01:18:09.123Z,79.75
2022-12-29T01:20:38.402Z,79.86
2022-12-29T01:23:31.809Z,79.96
2022-12-29T01:26:25.563Z,79.92
2022-12-29T01:29:28.123Z,79.94
2022-12-29T01:32:23.799Z,80.68
2022-12-29T01:34:59.302Z,81.02
2022-12-29T01:37:39.146Z,81.33
2022-12-29T01:40:16.433Z,81.79
2022-12-29T01:42:56.623Z,81.81
2022-12-29T01:45:31.370Z,82.23
2022-12-29T01:48:11.172Z,82.97
2022-12-29T01:51:08.058Z,82.93
2022-12-29T01:53:51.402Z,83.67
2022-12-29T01:56:29.175Z,83.84
2022-12-29T01:59:25.733Z,84.57
2022-12-29T02:02:07.497Z,84.63
2022-12-29T02:04:54.630Z,85.38
2022-12-29T02:07:32.389Z,85.68
2022-12-29T02:10:13.561Z,86.09
2022-12-29T02:13:05.476Z,86.50
2022-12-29T02:16:40.073Z,86.94
2022-12-29T02:20:02.767Z,87.73
2022-12-29T02:23:15.723Z,87.66
2022-12-29T02:26:31.726Z,88.07
2022-12-29T02:30:03.811Z,88.24
2022-12-29T02:33:07.062Z,88.53
2022-12-29T02:36:11.591Z,88.35
2022-12-29T02:39:14.562Z,88.36
2022-12-29T02:41:55.697Z,88.68
2022-12-29T02:44:26.791Z,87.97
2022-12-29T02:47:18.737Z,88.44
2022-12-29T02:50:23.620Z,88.14
2022-12-29T02:53:17.873Z,87.66
2022-12-29T02:55:56.877Z,87.51
2022-12-29T02:58:35.950Z,87.58
2022-12-29T03:01:18.314Z,87.30
2022-12-29T03:04:18.466Z,87.10
2022-12-29T03:07:09.469Z,86.86
2022-12-29T03:13:47.437Z,86.86
2022-12-29T03:19:37.259Z,86.15
2022-12-29T03:22:34.561Z,85.88
2022-12-29T03:25:33.387Z,85.60
2022-12-29T03:28:09.066Z,85.19
2022-12-29T03:30:51.120Z,85.09
2022-12-29T03:33:35.239Z,84.67
2022-12-29T03:36:16.358Z,85.00
2022-12-29T03:39:15.996Z,84.56
2022-12-29T03:41:58.299Z,84.35
2022-12-29T03:44:43.322Z,84.07
2022-12-29T03:47:27.823Z,83.90
2022-12-29T03:50:00.405Z,83.76
2022-12-29T03:52:36.883Z,83.21
2022-12-29T03:55:05.745Z,82.68
2022-12-29T03:57:46.463Z,82.48
2022-12-29T04:00:19.006Z,82.55
2022-12-29T04:02:56.186Z,82.16
2022-12-29T04:08:25.798Z,82.56
2022-12-29T04:11:03.510Z,82.53
2022-12-29T04:13:51.453Z,82.19
2022-12-29T04:16:25.974Z,82.94
2022-12-29T04:19:30.227Z,82.33
2022-12-29T04:22:16.853Z,82.63
2022-12-29T04:25:05.399Z,82.90
2022-12-29T04:27:37.440Z,82.49
2022-12-29T04:30:10.905Z,82.26
2022-12-29T04:32:47.374Z,82.51
2022-12-29T04:35:34.272Z,82.59
2022-12-29T04:38:10.130Z,82.47
2022-12-29T04:43:53.164Z,82.78
2022-12-29T04:46:30.006Z,82.76
2022-12-29T04:49:07.235Z,82.33
2022-12-29T04:51:54.555Z,82.25
2022-12-29T04:54:26.120Z,82.38
2022-12-29T04:57:04.617Z,82.14
2022-12-29T04:59:54.095Z,81.74
2022-12-29T05:02:40.551Z,82.10
2022-12-29T05:05:15.478Z,82.03
2022-12-29T05:07:46.089Z,81.47
2022-12-29T05:10:19.589Z,81.51
2022-12-29T05:12:50.875Z,81.45
2022-12-29T05:15:30.581Z,81.27
2022-12-29T05:18:01.246Z,81.72
2022-12-29T05:20:41.418Z,81.64
2022-12-29T05:23:42.738Z,81.85
2022-12-29T05:26:11.826Z,81.61
2022-12-29T05:29:04.139Z,81.81
2022-12-29T05:31:51.195Z,81.42
2022-12-29T05:34:33.677Z,81.44
2022-12-29T05:37:17.545Z,81.25
2022-12-29T05:40:13.658Z,81.32
2022-12-29T05:42:57.220Z,81.08
2022-12-29T05:45:42.556Z,81.01
2022-12-29T05:48:25.057Z,80.70
2022-12-29T05:54:11.824Z,80.82
2022-12-29T05:57:11.384Z,80.22
2022-12-29T05:59:40.264Z,80.10
2022-12-29T06:02:15.331Z,79.76
2022-12-29T06:04:49.482Z,80.02
2022-12-29T06:07:21.284Z,79.95
2022-12-29T06:09:50.292Z,79.82
2022-12-29T06:12:36.266Z,79.55
2022-12-29T06:15:16.324Z,79.44
2022-12-29T06:17:48.153Z,79.29
2022-12-29T06:20:37.110Z,79.32
2022-12-29T06:23:14.864Z,79.57
2022-12-29T06:25:59.236Z,79.39
2022-12-29T06:28:38.758Z,79.29
2022-12-29T06:31:24.160Z,79.06
2022-12-29T06:34:16.472Z,79.13
2022-12-29T06:37:07.225Z,79.18
2022-12-29T06:39:57.133Z,78.83
2022-12-29T06:42:30.225Z,78.97
2022-12-29T06:45:09.326Z,78.91
2022-12-29T06:47:46.189Z,78.48
2022-12-29T06:50:22.366Z,78.61
2022-12-29T06:52:59.860Z,78.67
2022-12-29T06:55:32.598Z,78.92
2022-12-29T06:58:05.671Z,79.19
2022-12-29T07:00:35.015Z,78.94
2022-12-29T07:03:06.761Z,79.23
2022-12-29T07:05:45.980Z,78.89
2022-12-29T07:08:22.097Z,79.66
2022-12-29T07:11:10.494Z,79.28
2022-12-29T07:13:39.116Z,78.91
2022-12-29T07:16:09.022Z,79.32
2022-12-29T07:18:37.732Z,79.30
2022-12-29T07:21:06.710Z,79.42
2022-12-29T07:23:36.179Z,79.61
2022-12-29T07:26:08.099Z,79.52
2022-12-29T07:28:39.838Z,79.76
2022-12-29T07:31:16.887Z,79.38
2022-12-29T07:33:46.360Z,80.05
2022-12-29T07:36:16.288Z,79.92
2022-12-29T07:38:45.245Z,79.62
2022-12-29T07:41:14.309Z,80.33
2022-12-29T07:43:42.779Z,80.60
2022-12-29T07:46:18.944Z,80.34
2022-12-29T07:49:00.162Z,80.53
2022-12-29T07:51:28.576Z,80.53
2022-12-29T07:53:56.921Z,80.58
2022-12-29T07:56:25.359Z,80.84
2022-12-29T07:58:54.287Z,80.84
2022-12-29T08:01:25.110Z,80.91
2022-12-29T08:03:57.306Z,80.65
2022-12-29T08:06:26.200Z,80.98
2022-12-29T08:08:54.653Z,80.77
2022-12-29T08:11:24.176Z,80.78
2022-12-29T08:13:54.823Z,80.53
2022-12-29T08:16:23.107Z,80.80
2022-12-29T08:18:51.666Z,80.52
2022-12-29T08:21:20.309Z,80.47
2022-12-29T08:23:49.088Z,80.40
2022-12-29T08:26:17.992Z,80.37
2022-12-29T08:28:47.127Z,80.42
2022-12-29T08:31:15.610Z,79.89
2022-12-29T08:33:44.028Z,80.35
2022-12-29T08:36:12.708Z,80.44
2022-12-29T08:38:41.469Z,80.81
2022-12-29T08:41:09.796Z,80.50
2022-12-29T08:43:38.138Z,80.33
2022-12-29T08:46:06.952Z,80.41
2022-12-29T08:48:35.508Z,80.08
2022-12-29T08:51:04.384Z,80.14
2022-12-29T08:53:32.938Z,79.86
2022-12-29T08:56:05.494Z,79.83
2022-12-29T08:58:34.204Z,79.94
2022-12-29T09:01:02.574Z,79.68
2022-12-29T09:04:04.405Z,79.56
2022-12-29T09:06:19.537Z,79.42
2022-12-29T09:08:47.985Z,79.16
2022-12-29T09:11:23.443Z,79.28
2022-12-29T09:13:53.715Z,78.90
2022-12-29T09:16:25.391Z,78.55
2022-12-29T09:18:56.516Z,78.93
2022-12-29T09:21:27.536Z,78.83
2022-12-29T09:23:55.991Z,78.39
2022-12-29T09:26:24.365Z,78.13
2022-12-29T09:28:53.694Z,78.00
2022-12-29T09:31:23.372Z,77.99
2022-12-29T09:33:51.844Z,78.16
2022-12-29T09:36:20.171Z,77.70
2022-12-29T09:38:50.076Z,77.02
2022-12-29T09:41:28.997Z,77.54
2022-12-29T09:43:57.423Z,77.12
2022-12-29T09:46:39.402Z,77.05
2022-12-29T09:49:41.071Z,77.41
2022-12-29T09:52:22.433Z,76.76
2022-12-29T09:55:08.982Z,76.86
2022-12-29T09:58:25.254Z,76.90
2022-12-29T10:01:02.977Z,76.17
2022-12-29T10:03:48.414Z,76.57
2022-12-29T10:10:18.167Z,75.78
2022-12-29T10:12:59.515Z,75.38
2022-12-29T10:15:40.076Z,76.00
2022-12-29T10:18:11.534Z,75.16
2022-12-29T10:20:58.285Z,75.18
2022-12-29T10:23:56.549Z,74.71
2022-12-29T10:26:35.291Z,74.89
2022-12-29T10:29:09.187Z,74.84
2022-12-29T10:31:48.519Z,74.48
2022-12-29T10:34:38.650Z,74.69
2022-12-29T10:37:33.599Z,74.07
2022-12-29T10:40:14.804Z,73.45
2022-12-29T10:42:49.730Z,73.01
2022-12-29T10:45:21.115Z,73.08
2022-12-29T10:48:14.948Z,72.90
2022-12-29T10:50:44.282Z,72.73
2022-12-29T10:53:26.133Z,72.44
2022-12-29T10:55:56.235Z,71.88
2022-12-29T10:58:26.111Z,71.50
2022-12-29T11:00:57.414Z,71.81
2022-12-29T11:03:48.195Z,71.02
2022-12-29T11:06:24.317Z,71.04
2022-12-29T11:09:10.767Z,71.09
2022-12-29T11:11:41.299Z,71.43
2022-12-29T11:14:19.039Z,70.42
2022-12-29T11:17:03.320Z,71.09
2022-12-29T11:19:40.560Z,70.45
2022-12-29T11:22:24.144Z,70.81
2022-12-29T11:24:55.860Z,71.01
2022-12-29T11:27:27.075Z,70.18
2022-12-29T11:29:55.800Z,70.15
2022-12-29T11:32:29.315Z,69.80
2022-12-29T11:34:59.982Z,69.91
2022-12-29T11:37:40.928Z,70.09
2022-12-29T11:40:21.889Z,69.50
2022-12-29T11:42:53.899Z,68.88
2022-12-29T11:45:25.636Z,68.70
2022-12-29T11:47:57.841Z,69.12
2022-12-29T11:50:30.693Z,68.87
2022-12-29T11:53:07.550Z,68.73
2022-12-29T11:55:36.003Z,68.65
2022-12-29T11:58:05.719Z,68.57
2022-12-29T12:00:40.921Z,68.58
2022-12-29T12:03:21.390Z,67.62
2022-12-29T12:06:03.685Z,67.79
2022-12-29T12:09:04.006Z,66.96
2022-12-29T12:11:43.401Z,67.30
2022-12-29T12:14:39.952Z,66.43
2022-12-29T12:17:25.078Z,67.47
2022-12-29T12:20:27.873Z,67.45
2022-12-29T12:23:04.455Z,67.83
2022-12-29T12:25:40.317Z,67.91
2022-12-29T12:28:26.644Z,67.75
2022-12-29T12:30:59.406Z,67.52
2022-12-29T12:33:40.593Z,67.18
2022-12-29T12:36:15.558Z,67.43
2022-12-29T12:39:07.061Z,66.90
2022-12-29T12:42:03.782Z,67.03
2022-12-29T12:44:41.056Z,66.79
2022-12-29T12:47:33.473Z,66.87
2022-12-29T12:50:26.277Z,66.66
2022-12-29T12:53:21.186Z,66.97
2022-12-29T12:56:31.367Z,67.01
2022-12-29T12:59:32.598Z,67.19
2022-12-29T13:02:34.209Z,67.22
2022-12-29T13:05:03.128Z,67.68
2022-12-29T13:08:04.099Z,67.56
2022-12-29T13:11:03.495Z,67.51
2022-12-29T13:13:32.000Z,67.34
2022-12-29T13:16:14.075Z,67.30
2022-12-29T13:19:06.298Z,67.01
2022-12-29T13:22:07.291Z,67.22
2022-12-29T13:24:45.478Z,67.17
2022-12-29T13:27:37.341Z,67.11
2022-12-29T13:30:23.188Z,67.32
2022-12-29T13:32:57.716Z,67.05
2022-12-29T13:35:33.374Z,67.45
2022-12-29T13:38:10.779Z,67.32
2022-12-29T13:40:45.428Z,67.39
2022-12-29T13:43:17.025Z,67.54
2022-12-29T13:45:57.279Z,67.16
2022-12-29T13:48:37.887Z,67.33
2022-12-29T13:51:06.994Z,67.59
2022-12-29T13:54:02.089Z,67.38
2022-12-29T13:57:02.092Z,67.46
2022-12-29T13:59:49.047Z,67.46
2022-12-29T14:02:46.281Z,67.33
2022-12-29T14:05:23.972Z,67.48
2022-12-29T14:08:05.102Z,67.82
2022-12-29T14:10:48.642Z,67.83
2022-12-29T14:13:23.273Z,67.69
2022-12-29T14:15:56.732Z,67.86
2022-12-29T14:18:30.618Z,68.25
2022-12-29T14:21:19.081Z,68.05
2022-12-29T14:23:50.017Z,68.61
2022-12-29T14:26:36.725Z,68.78
2022-12-29T14:29:26.151Z,68.89
2022-12-29T14:31:54.851Z,69.12
2022-12-29T14:34:31.269Z,69.09
2022-12-29T14:37:02.470Z,69.23
2022-12-29T14:39:33.568Z,69.68
2022-12-29T14:42:11.134Z,69.60
2022-12-29T14:44:52.519Z,69.54
2022-12-29T14:47:33.850Z,69.81
2022-12-29T14:50:07.740Z,70.04
2022-12-29T14:53:02.948Z,69.83
2022-12-29T14:55:39.817Z,70.10
2022-12-29T14:58:24.358Z,69.93
2022-12-29T15:00:56.787Z,70.24
2022-12-29T15:03:27.321Z,70.27
2022-12-29T15:06:09.816Z,70.25
2022-12-29T15:08:45.153Z,70.57
2022-12-29T15:11:41.573Z,70.43
2022-12-29T15:14:35.408Z,70.81
2022-12-29T15:17:23.860Z,70.70
2022-12-29T15:19:52.664Z,70.55
2022-12-29T15:22:22.038Z,70.80
2022-12-29T15:24:53.471Z,70.84
2022-12-29T15:27:27.762Z,71.21
2022-12-29T15:30:03.203Z,71.30
2022-12-29T15:32:43.569Z,71.03
2022-12-29T15:35:30.357Z,71.06
2022-12-29T15:38:00.805Z,71.43
2022-12-29T15:40:34.009Z,71.03
2022-12-29T15:43:11.546Z,70.93
2022-12-29T15:45:40.138Z,71.08
2022-12-29T15:48:19.487Z,71.22
2022-12-29T15:50:48.897Z,71.39
2022-12-29T15:53:30.417Z,71.26
2022-12-29T15:56:09.868Z,71.66
2022-12-29T15:58:46.011Z,71.68
2022-12-29T16:01:37.582Z,71.25
2022-12-29T16:04:09.167Z,71.27
2022-12-29T16:06:40.197Z,71.48
2022-12-29T16:09:17.273Z,71.71
2022-12-29T16:11:56.210Z,71.57
2022-12-29T16:14:42.229Z,71.51
2022-12-29T16:17:20.783Z,71.64
2022-12-29T16:19:56.901Z,71.76
2022-12-29T16:22:42.603Z,71.62
2022-12-29T16:25:25.743Z,71.33
2022-12-29T16:27:54.583Z,71.26
2022-12-29T16:30:33.441Z,71.17
2022-12-29T16:33:05.970Z,71.40
2022-12-29T16:35:47.770Z,71.60
2022-12-29T16:38:27.119Z,71.20
2022-12-29T16:41:04.358Z,71.59
2022-12-29T16:43:35.996Z,71.60
2022-12-29T16:46:34.001Z,71.84
2022-12-29T16:49:24.272Z,71.96
2022-12-29T16:52:05.411Z,71.88
2022-12-29T16:54:39.575Z,72.13
2022-12-29T16:57:10.467Z,72.07
2022-12-29T16:59:43.879Z,72.19
2022-12-29T17:02:18.415Z,71.85
2022-12-29T17:04:49.644Z,72.61
2022-12-29T17:07:19.632Z,72.38
2022-12-29T17:09:48.294Z,72.48
2022-12-29T17:12:21.255Z,72.56
2022-12-29T17:15:07.675Z,72.65
2022-12-29T17:17:41.563Z,72.62
2022-12-29T17:20:22.129Z,72.62
2022-12-29T17:22:55.136Z,72.57
2022-12-29T17:25:38.060Z,72.49
2022-12-29T17:28:12.980Z,72.47
2022-12-29T17:30:44.659Z,72.57
2022-12-29T17:33:17.331Z,72.68
2022-12-29T17:35:50.539Z,72.30
2022-12-29T17:38:29.643Z,72.45
2022-12-29T17:40:59.731Z,72.56
2022-12-29T17:43:34.775Z,72.72
2022-12-29T17:46:08.307Z,72.65
2022-12-29T17:48:41.238Z,72.74
2022-12-29T17:51:15.053Z,73.15
2022-12-29T17:53:44.340Z,73.01
2022-12-29T17:56:16.878Z,73.15
2022-12-29T17:58:47.143Z,73.22
2022-12-29T18:01:16.147Z,73.16
2022-12-29T18:03:44.809Z,73.00
2022-12-29T18:06:15.121Z,73.54
2022-12-29T18:08:46.707Z,73.78
2022-12-29T18:11:26.332Z,73.77
2022-12-29T18:13:54.886Z,73.62
2022-12-29T18:16:24.083Z,74.02
2022-12-29T18:18:54.984Z,73.84
2022-12-29T18:21:24.547Z,73.91
2022-12-29T18:23:53.006Z,74.18
2022-12-29T18:26:28.135Z,74.17
2022-12-29T18:28:58.298Z,74.59
2022-12-29T18:31:29.772Z,74.56
2022-12-29T18:33:59.584Z,74.76
2022-12-29T18:36:29.497Z,74.67
2022-12-29T18:39:00.388Z,74.81
2022-12-29T18:41:31.694Z,75.23
2022-12-29T18:44:01.308Z,74.86
2022-12-29T18:46:30.649Z,75.16
2022-12-29T18:48:59.361Z,75.51
2022-12-29T18:51:31.893Z,75.64
2022-12-29T18:54:18.600Z,76.15
2022-12-29T18:56:55.541Z,76.03
2022-12-29T18:59:32.144Z,76.30
2022-12-29T19:02:00.572Z,76.21
2022-12-29T19:04:29.370Z,76.15
2022-12-29T19:06:57.898Z,76.30
2022-12-29T19:09:27.483Z,76.46
2022-12-29T19:11:55.811Z,76.48
2022-12-29T19:14:24.234Z,76.58
2022-12-29T19:16:54.528Z,76.80
2022-12-29T19:19:23.015Z,76.78
2022-12-29T19:21:56.613Z,76.90
2022-12-29T19:24:25.161Z,77.13
2022-12-29T19:26:53.670Z,77.23
2022-12-29T19:29:22.592Z,77.08
2022-12-29T19:31:50.896Z,77.50
2022-12-29T19:34:19.283Z,77.49
2022-12-29T19:36:47.583Z,77.62
2022-12-29T19:39:16.286Z,77.70
2022-12-29T19:41:45.291Z,77.76
2022-12-29T19:44:13.791Z,78.02
2022-12-29T19:46:42.726Z,77.96
2022-12-29T19:49:11.178Z,78.30
2022-12-29T19:51:39.966Z,78.12
2022-12-29T19:54:08.337Z,78.47
2022-12-29T19:56:37.357Z,78.82
2022-12-29T19:59:05.671Z,78.96
2022-12-29T20:01:34.175Z,79.48
2022-12-29T20:04:04.138Z,79.08
2022-12-29T20:06:33.715Z,79.17
2022-12-29T20:09:03.661Z,79.33
2022-12-29T20:11:33.350Z,79.67
2022-12-29T20:14:01.800Z,79.51
2022-12-29T20:16:30.327Z,79.74
2022-12-29T20:18:59.026Z,79.52
2022-12-29T20:21:27.858Z,79.32
2022-12-29T20:23:56.634Z,79.48
2022-12-29T20:26:28.327Z,78.76
2022-12-29T20:29:01.112Z,78.47
2022-12-29T20:31:38.611Z,78.34
2022-12-29T20:34:09.060Z,78.18
2022-12-29T20:36:41.303Z,78.09
2022-12-29T20:39:17.447Z,77.56
2022-12-29T20:41:48.238Z,77.27
2022-12-29T20:44:16.612Z,77.31
2022-12-29T20:46:45.181Z,77.35
2022-12-29T20:49:13.487Z,77.29
2022-12-29T20:54:38.707Z,77.24
2022-12-29T20:57:08.450Z,76.98
2022-12-29T20:59:37.233Z,76.98
2022-12-29T21:02:06.030Z,77.16
2022-12-29T21:04:57.505Z,76.93
2022-12-29T21:07:22.800Z,76.34
2022-12-29T21:09:51.509Z,76.74
2022-12-29T21:12:20.493Z,76.64
2022-12-29T21:14:52.348Z,76.45
2022-12-29T21:17:21.151Z,76.78
2022-12-29T21:19:49.475Z,76.53
2022-12-29T21:22:17.724Z,76.81
2022-12-29T21:24:46.034Z,76.78
2022-12-29T21:27:14.275Z,76.93
2022-12-29T21:29:42.647Z,76.71
2022-12-29T21:32:10.947Z,76.95
2022-12-29T21:34:39.548Z,77.25
2022-12-29T21:37:08.413Z,77.10
2022-12-29T21:39:37.413Z,77.09
2022-12-29T21:42:06.270Z,77.31
2022-12-29T21:44:53.387Z,77.26
2022-12-29T21:47:22.997Z,77.10
2022-12-29T21:49:51.363Z,77.03
2022-12-29T21:52:19.740Z,77.12
2022-12-29T21:55:05.202Z,77.65
2022-12-29T21:57:52.311Z,77.28
2022-12-29T22:00:39.852Z,77.23
2022-12-29T22:03:27.461Z,77.40
2022-12-29T22:06:15.173Z,77.34
2022-12-29T22:09:02.311Z,77.69
2022-12-29T22:11:49.684Z,77.56
2022-12-29T22:14:18.140Z,77.79
2022-12-29T22:16:48.868Z,77.98
2022-12-29T22:19:17.267Z,78.29
2022-12-29T22:21:45.588Z,78.24
2022-12-29T22:24:13.941Z,78.30
2022-12-29T22:26:42.592Z,78.10
2022-12-29T22:29:10.962Z,78.63
2022-12-29T22:31:39.396Z,78.62
2022-12-29T22:34:07.863Z,78.47
2022-12-29T22:36:39.068Z,78.50
2022-12-29T22:39:07.466Z,78.96
2022-12-29T22:41:35.990Z,79.25
2022-12-29T22:44:06.669Z,79.26
2022-12-29T22:46:35.090Z,79.34
2022-12-29T22:49:04.012Z,79.77
2022-12-29T22:51:35.692Z,79.95
2022-12-29T22:54:04.483Z,79.74
2022-12-29T22:56:33.051Z,80.14
2022-12-29T22:59:02.005Z,80.04
2022-12-29T23:01:30.532Z,80.26
2022-12-29T23:04:55.612Z,80.59
2022-12-29T23:07:37.646Z,81.01
2022-12-29T23:10:54.129Z,81.14
2022-12-29T23:13:49.835Z,81.22
2022-12-29T23:16:26.150Z,81.21
2022-12-29T23:18:59.101Z,81.40
2022-12-29T23:21:36.755Z,81.27
2022-12-29T23:24:16.487Z,81.22
2022-12-29T23:27:01.729Z,81.37
2022-12-29T23:29:56.629Z,81.35
2022-12-29T23:32:52.301Z,81.66
2022-12-29T23:35:41.828Z,81.32
2022-12-29T23:38:23.190Z,81.29
2022-12-29T23:41:10.918Z,81.59
2022-12-29T23:43:54.055Z,81.28
2022-12-29T23:46:50.145Z,81.33
2022-12-29T23:52:30.107Z,81.63
2022-12-29T23:55:31.631Z,81.33
2022-12-29T23:58:42.175Z,81.69
